createdAt,value
2023-06-29T00:04:00.379Z,61.30
2023-06-29T00:09:06.243Z,63.00
2023-06-29T00:14:10.741Z,62.80
2023-06-29T00:19:16.388Z,62.80
2023-06-29T00:24:21.345Z,62.70
2023-06-29T00:29:25.588Z,63.10
2023-06-29T00:34:29.839Z,62.70
2023-06-29T00:39:34.790Z,62.70
2023-06-29T00:44:39.125Z,62.70
2023-06-29T00:49:43.584Z,62.90
2023-06-29T00:54:48.219Z,62.50
2023-06-29T00:59:53.598Z,62.70
2023-06-29T01:04:59.369Z,63.00
2023-06-29T01:10:05.551Z,62.70
2023-06-29T01:15:12.743Z,62.90
2023-06-29T01:20:17.898Z,62.30
2023-06-29T01:25:22.240Z,62.90
2023-06-29T01:30:27.891Z,62.80
2023-06-29T01:35:34.112Z,62.60
2023-06-29T01:40:39.817Z,62.30
2023-06-29T01:45:45.246Z,61.30
2023-06-29T01:50:50.579Z,61.40
2023-06-29T01:55:54.738Z,60.90
2023-06-29T02:00:59.156Z,61.80
2023-06-29T02:06:03.303Z,62.00
2023-06-29T02:11:07.835Z,62.00
2023-06-29T02:16:12.139Z,62.40
2023-06-29T02:21:16.621Z,62.30
2023-06-29T02:26:21.066Z,62.10
2023-06-29T02:31:25.041Z,62.00
2023-06-29T02:36:29.325Z,62.10
2023-06-29T02:41:33.617Z,61.80
2023-06-29T02:46:37.838Z,61.90
2023-06-29T02:51:42.024Z,61.80
2023-06-29T02:56:47.325Z,62.10
2023-06-29T03:01:51.340Z,61.80
2023-06-29T03:06:55.805Z,62.00
2023-06-29T03:12:00.028Z,62.00
2023-06-29T03:17:04.506Z,62.00
2023-06-29T03:22:08.390Z,62.00
2023-06-29T03:27:12.931Z,62.10
2023-06-29T03:32:17.276Z,61.80
2023-06-29T03:37:21.200Z,62.10
2023-06-29T03:42:25.441Z,62.20
2023-06-29T03:47:29.682Z,61.70
2023-06-29T03:52:33.924Z,62.40
2023-06-29T03:57:38.054Z,61.80
2023-06-29T04:02:42.414Z,61.80
2023-06-29T04:07:46.620Z,61.60
2023-06-29T04:12:50.761Z,61.60
2023-06-29T04:17:54.998Z,62.00
2023-06-29T04:22:59.041Z,61.60
2023-06-29T04:28:03.173Z,61.50
2023-06-29T04:33:11.699Z,61.50
2023-06-29T04:38:15.739Z,61.50
2023-06-29T04:43:19.870Z,61.50
2023-06-29T04:48:30.494Z,61.60
2023-06-29T04:53:36.424Z,61.40
2023-06-29T04:58:40.974Z,61.50
2023-06-29T05:03:45.114Z,61.50
2023-06-29T05:08:49.972Z,61.30
2023-06-29T05:13:54.091Z,61.60
2023-06-29T05:18:58.144Z,61.20
2023-06-29T05:24:03.553Z,61.30
2023-06-29T05:29:07.626Z,61.50
2023-06-29T05:34:11.958Z,61.40
2023-06-29T05:39:16.526Z,61.40
2023-06-29T05:44:20.755Z,61.10
2023-06-29T05:49:26.534Z,61.70
2023-06-29T05:54:30.678Z,61.30
2023-06-29T05:59:35.202Z,61.30
2023-06-29T06:04:39.471Z,61.00
2023-06-29T06:09:43.477Z,60.70
2023-06-29T06:14:47.521Z,60.90
2023-06-29T06:19:51.957Z,60.90
2023-06-29T06:24:56.115Z,60.80
2023-06-29T06:30:00.532Z,60.90
2023-06-29T06:35:06.242Z,60.60
2023-06-29T06:40:11.157Z,60.50
2023-06-29T06:45:15.592Z,60.80
2023-06-29T06:50:20.030Z,60.70
2023-06-29T06:55:24.055Z,61.20
2023-06-29T07:00:29.005Z,60.90
2023-06-29T07:05:33.552Z,61.00
2023-06-29T07:10:37.903Z,61.00
2023-06-29T07:15:41.825Z,60.80
2023-06-29T07:25:53.569Z,59.90
2023-06-29T07:30:57.551Z,59.50
2023-06-29T07:36:01.946Z,61.70
2023-06-29T07:41:07.007Z,64.10
2023-06-29T07:46:11.247Z,61.80
2023-06-29T07:51:16.296Z,61.70
2023-06-29T07:56:20.744Z,61.90
2023-06-29T08:01:25.030Z,61.60
2023-06-29T08:11:36.111Z,62.50
2023-06-29T08:16:40.362Z,62.50
2023-06-29T08:21:44.701Z,62.60
2023-06-29T08:26:49.025Z,62.60
2023-06-29T08:31:53.557Z,62.90
2023-06-29T08:36:57.954Z,62.50
2023-06-29T08:42:05.140Z,62.00
2023-06-29T08:47:12.656Z,61.50
2023-06-29T08:52:20.108Z,60.90
2023-06-29T08:57:25.408Z,60.10
2023-06-29T09:02:30.440Z,59.60
2023-06-29T09:07:35.946Z,58.90
2023-06-29T09:12:40.482Z,59.40
2023-06-29T09:17:47.546Z,58.60
2023-06-29T09:22:55.195Z,58.80
2023-06-29T09:28:04.060Z,58.20
2023-06-29T09:33:13.442Z,57.10
2023-06-29T09:38:18.209Z,56.80
2023-06-29T09:43:30.112Z,56.70
2023-06-29T09:53:41.087Z,56.00
2023-06-29T09:58:45.674Z,55.10
2023-06-29T10:03:49.759Z,53.90
2023-06-29T10:08:59.722Z,54.80
2023-06-29T10:14:05.934Z,55.50
2023-06-29T10:19:20.787Z,55.40
2023-06-29T10:24:32.402Z,55.80
2023-06-29T10:29:49.918Z,54.80
2023-06-29T10:35:03.204Z,55.20
2023-06-29T10:40:26.350Z,53.90
2023-06-29T10:45:32.434Z,52.80
2023-06-29T10:50:42.127Z,52.90
2023-06-29T10:55:54.805Z,53.10
2023-06-29T11:00:59.051Z,52.80
2023-06-29T11:06:04.223Z,52.50
2023-06-29T11:11:18.098Z,52.10
2023-06-29T11:16:22.328Z,51.50
2023-06-29T11:21:26.927Z,52.20
2023-06-29T11:26:30.968Z,52.00
2023-06-29T11:31:35.089Z,52.10
2023-06-29T11:36:40.058Z,52.10
2023-06-29T11:41:44.394Z,52.20
2023-06-29T11:46:54.829Z,52.80
2023-06-29T11:52:10.795Z,53.20
2023-06-29T11:57:19.333Z,52.50
2023-06-29T12:02:25.055Z,52.00
2023-06-29T12:07:46.318Z,52.10
2023-06-29T12:12:57.470Z,51.90
2023-06-29T12:18:10.787Z,51.70
2023-06-29T12:23:16.013Z,52.10
2023-06-29T12:28:20.794Z,52.50
2023-06-29T12:33:24.691Z,52.10
2023-06-29T12:38:28.836Z,52.00
2023-06-29T12:43:33.062Z,51.90
2023-06-29T12:48:40.902Z,50.80
2023-06-29T12:53:44.926Z,50.90
2023-06-29T12:58:48.947Z,50.70
2023-06-29T13:03:53.418Z,50.90
2023-06-29T13:08:57.742Z,51.00
2023-06-29T13:14:02.391Z,50.30
2023-06-29T13:19:06.320Z,50.50
2023-06-29T13:24:10.401Z,50.30
2023-06-29T13:29:14.481Z,50.30
2023-06-29T13:34:19.340Z,50.30
2023-06-29T13:39:23.657Z,50.40
2023-06-29T13:44:28.121Z,50.10
2023-06-29T13:49:32.361Z,50.20
2023-06-29T13:54:36.987Z,50.20
2023-06-29T13:59:42.283Z,51.50
2023-06-29T14:04:48.214Z,51.80
2023-06-29T14:09:52.256Z,52.40
2023-06-29T14:14:56.426Z,51.60
2023-06-29T14:20:01.159Z,51.00
2023-06-29T14:25:05.698Z,50.80
2023-06-29T14:30:12.340Z,51.00
2023-06-29T14:35:32.040Z,52.00
2023-06-29T14:40:37.948Z,51.50
2023-06-29T14:45:42.437Z,50.20
2023-06-29T14:50:47.903Z,49.90
2023-06-29T14:56:06.393Z,49.70
2023-06-29T15:01:10.497Z,49.50
2023-06-29T15:06:14.797Z,49.70
2023-06-29T15:11:18.728Z,49.80
2023-06-29T15:16:22.864Z,49.60
2023-06-29T15:21:27.402Z,49.60
2023-06-29T15:26:31.869Z,50.00
2023-06-29T15:31:36.258Z,49.80
2023-06-29T15:36:40.650Z,51.30
2023-06-29T15:41:50.724Z,50.60
2023-06-29T15:46:56.209Z,50.60
2023-06-29T15:52:00.938Z,49.80
2023-06-29T15:57:05.103Z,50.70
2023-06-29T16:02:10.095Z,50.80
2023-06-29T16:07:14.991Z,50.60
2023-06-29T16:12:18.918Z,51.20
2023-06-29T16:17:22.742Z,52.10
2023-06-29T16:22:28.019Z,52.00
2023-06-29T16:27:32.918Z,51.90
2023-06-29T16:32:37.117Z,52.10
2023-06-29T16:37:44.879Z,50.50
2023-06-29T16:42:49.729Z,49.80
2023-06-29T16:47:53.985Z,49.40
2023-06-29T16:52:58.210Z,49.70
2023-06-29T16:58:04.093Z,49.90
2023-06-29T17:03:08.402Z,50.30
2023-06-29T17:08:12.655Z,49.50
2023-06-29T17:13:16.806Z,50.10
2023-06-29T17:18:21.065Z,50.60
2023-06-29T17:23:25.268Z,50.50
2023-06-29T17:28:29.745Z,50.50
2023-06-29T17:33:49.356Z,50.70
2023-06-29T17:38:58.182Z,51.20
2023-06-29T17:44:02.704Z,52.30
2023-06-29T17:49:07.429Z,52.30
2023-06-29T17:54:12.296Z,51.90
2023-06-29T17:59:16.917Z,52.80
2023-06-29T18:04:22.743Z,53.10
2023-06-29T18:09:28.573Z,53.80
2023-06-29T18:14:33.537Z,53.30
2023-06-29T18:19:38.507Z,53.30
2023-06-29T18:24:43.068Z,53.40
2023-06-29T18:29:47.978Z,53.30
2023-06-29T18:34:52.462Z,53.30
2023-06-29T18:39:58.182Z,53.60
2023-06-29T18:45:07.356Z,53.60
2023-06-29T18:50:12.927Z,54.10
2023-06-29T18:55:17.964Z,55.00
2023-06-29T19:00:22.317Z,54.70
2023-06-29T19:05:26.877Z,54.40
2023-06-29T19:10:31.100Z,54.80
2023-06-29T19:15:35.580Z,54.80
2023-06-29T19:20:40.288Z,54.40
2023-06-29T19:25:45.246Z,54.30
2023-06-29T19:30:50.215Z,54.40
2023-06-29T19:35:54.646Z,54.90
2023-06-29T19:41:00.415Z,55.60
2023-06-29T19:46:05.712Z,55.60
2023-06-29T19:51:10.564Z,55.70
2023-06-29T19:56:15.216Z,56.50
2023-06-29T20:01:20.438Z,57.60
2023-06-29T20:06:26.042Z,58.40
2023-06-29T20:11:33.623Z,58.40
2023-06-29T20:16:38.990Z,58.20
2023-06-29T20:21:44.173Z,58.40
2023-06-29T20:26:49.300Z,57.50
2023-06-29T20:31:54.006Z,58.40
2023-06-29T20:36:58.580Z,56.50
2023-06-29T20:42:03.776Z,56.50
2023-06-29T20:47:10.030Z,56.70
2023-06-29T20:52:14.281Z,57.50
2023-06-29T20:57:22.962Z,58.00
2023-06-29T21:02:27.304Z,58.40
2023-06-29T21:07:31.683Z,59.00
2023-06-29T21:12:36.584Z,59.70
2023-06-29T21:17:41.212Z,59.10
2023-06-29T21:22:46.521Z,59.60
2023-06-29T21:27:50.774Z,59.60
2023-06-29T21:32:56.713Z,59.90
2023-06-29T21:38:01.298Z,59.90
2023-06-29T21:43:05.226Z,59.40
2023-06-29T21:48:10.219Z,59.80
2023-06-29T21:53:15.477Z,59.60
2023-06-29T21:58:20.437Z,59.70
2023-06-29T22:03:24.634Z,60.00
2023-06-29T22:08:28.877Z,60.30
2023-06-29T22:13:33.213Z,59.80
2023-06-29T22:18:37.131Z,59.50
2023-06-29T22:23:41.090Z,59.70
2023-06-29T22:28:45.722Z,59.60
2023-06-29T22:33:49.755Z,59.90
2023-06-29T22:38:54.295Z,59.30
2023-06-29T22:44:00.668Z,59.90
2023-06-29T22:49:04.728Z,60.10
2023-06-29T22:54:10.394Z,59.80
2023-06-29T22:59:14.424Z,59.10
2023-06-29T23:04:18.653Z,58.80
2023-06-29T23:09:23.924Z,58.60
2023-06-29T23:14:27.884Z,58.80
2023-06-29T23:19:35.354Z,58.60
2023-06-29T23:24:39.512Z,58.80
2023-06-29T23:29:43.503Z,58.60
2023-06-29T23:34:47.462Z,58.20
2023-06-29T23:39:51.609Z,58.10
2023-06-29T23:44:55.736Z,58.50
2023-06-29T23:50:01.305Z,58.20
2023-06-29T23:55:07.666Z,59.00
